This is the latest recevied weather packets stored in our database for station/object GW1469. If no packets are shown the sender has not sent any weather packets the latest 10 day(s).
| Time | Temp. | Humidity | Pressure | Rain* | Wind** | Luminosity | Snow |
|---|---|---|---|---|---|---|---|
| 1777623876 | 2.22° C | 99% | 1025 hPa | 0 mm | - | - | - |
| 1777623144 | 2.78° C | 99% | 1025 hPa | 0 mm | - | - | - |
| 1777618453 | 3.33° C | 99% | 1025.3 hPa | 0 mm | - | - | - |
| 1777602278 | 7.22° C | 86% | 1025.7 hPa | 0 mm | - | - | - |
| 1777600495 | 7.78° C | 83% | 1025.7 hPa | 0 mm | - | - | - |
| 1777598331 | 8.89° C | 74% | 1025 hPa | 0 mm | - | - | - |
| 1777592921 | 12.78° C | 57% | 1024 hPa | 0 mm | - | - | - |
| 1777590413 | 14.44° C | 48% | 1023.7 hPa | 0 mm | - | - | - |
| 1777588951 | 15° C | 46% | 1023.7 hPa | 0 mm | - | - | - |
| 1777584620 | 16.67° C | 42% | 1023.3 hPa | 0 mm | - | - | - |
| 1777583566 | 17.22° C | 39% | 1023.3 hPa | 0 mm | - | - | - |
| 1777573462 | 15.56° C | 46% | 1024 hPa | 0 mm | - | - | - |
| 1777573123 | 15.56° C | 47% | 1023.7 hPa | 0 mm | - | - | - |
| 1777568074 | 13.89° C | 52% | 1024.3 hPa | 0 mm | - | - | - |
| 1777564853 | 13.33° C | 61% | 1024.7 hPa | 0 mm | - | - | - |
| 1777564461 | 13.33° C | 69% | 1024.3 hPa | 0 mm | - | - | - |
| 1777555119 | 11.67° C | 71% | 1024.3 hPa | 0 mm | - | - | - |
| 1777554031 | 10.56° C | 74% | 1024.3 hPa | 0 mm | - | - | - |
| 1777552218 | 10° C | 74% | 1024 hPa | 0 mm | - | - | - |
| 1777547554 | 10.56° C | 88% | 1023.3 hPa | 0 mm | - | - | - |
| 1777543972 | 11.11° C | 92% | 1022.3 hPa | 0 mm | - | - | - |
| 1777541793 | 10.56° C | 98% | 1021.6 hPa | 0 mm | - | - | - |
| 1777541092 | 10.56° C | 99% | 1021.6 hPa | 0 mm | - | - | - |
| 1777539636 | 10° C | 99% | 1021.6 hPa | 0 mm | - | - | - |
| 1777533490 | 10.56° C | 99% | 1022.3 hPa | 0 mm | - | - | - |
* Rain since midnight (hover to see other rain measurements)
** Current wind speed in m/s (hover to see current wind gust speed)